createdAt,value
2023-03-06T00:00:58.092Z,-1.40
2023-03-06T00:03:27.802Z,-1.30
2023-03-06T00:05:59.284Z,-1.30
2023-03-06T00:08:29.780Z,-1.30
2023-03-06T00:10:57.467Z,-1.30
2023-03-06T00:13:25.374Z,-1.30
2023-03-06T00:15:52.653Z,-1.30
2023-03-06T00:18:19.998Z,-1.30
2023-03-06T00:20:47.171Z,-1.20
2023-03-06T00:23:16.474Z,-1.40
2023-03-06T00:25:46.762Z,-1.40
2023-03-06T00:28:15.962Z,-1.40
2023-03-06T00:30:47.769Z,-1.40
2023-03-06T00:33:14.515Z,-1.50
2023-03-06T00:35:42.020Z,-1.40
2023-03-06T00:38:12.298Z,-1.40
2023-03-06T00:40:39.323Z,-1.20
2023-03-06T00:43:06.501Z,-1.20
2023-03-06T00:45:35.960Z,-1.30
2023-03-06T00:48:03.115Z,-1.30
2023-03-06T00:50:32.159Z,-1.30
2023-03-06T00:53:01.403Z,-1.20
2023-03-06T00:55:29.541Z,-1.20
2023-03-06T00:57:56.853Z,-1.10
2023-03-06T01:00:24.176Z,-1.20
2023-03-06T01:02:53.949Z,-1.10
2023-03-06T01:05:22.593Z,-1.10
2023-03-06T01:07:50.537Z,-1.10
2023-03-06T01:10:20.227Z,-1.10
2023-03-06T01:12:49.207Z,-1.10
2023-03-06T01:15:18.846Z,-1.10
2023-03-06T01:17:49.390Z,-1.00
2023-03-06T01:20:18.409Z,-1.00
2023-03-06T01:22:49.490Z,-1.00
2023-03-06T01:25:16.879Z,-1.00
2023-03-06T01:27:48.865Z,-0.90
2023-03-06T01:30:15.815Z,-0.90
2023-03-06T01:32:43.885Z,-0.90
2023-03-06T01:35:17.436Z,-0.90
2023-03-06T01:37:47.688Z,-0.90
2023-03-06T01:40:15.705Z,-0.90
2023-03-06T01:42:46.380Z,-1.00
2023-03-06T01:45:23.373Z,-0.90
2023-03-06T01:47:51.253Z,-0.90
2023-03-06T01:50:21.997Z,-0.90
2023-03-06T01:52:53.102Z,-0.90
2023-03-06T01:55:28.097Z,-0.80
2023-03-06T01:58:01.842Z,-0.80
2023-03-06T02:00:32.663Z,-0.80
2023-03-06T02:03:18.438Z,-0.70
2023-03-06T02:05:45.974Z,-0.70
2023-03-06T02:08:17.694Z,-0.70
2023-03-06T02:10:58.767Z,-0.70
2023-03-06T02:13:26.067Z,-0.70
2023-03-06T02:16:00.000Z,-0.60
2023-03-06T02:18:28.080Z,-0.60
2023-03-06T02:21:00.100Z,-0.70
2023-03-06T02:24:03.721Z,-0.70
2023-03-06T02:26:33.588Z,-0.70
2023-03-06T02:29:01.163Z,-0.70
2023-03-06T02:31:31.527Z,-0.80
2023-03-06T02:34:20.668Z,-0.80
2023-03-06T02:36:55.339Z,-0.80
2023-03-06T02:39:27.147Z,-0.80
2023-03-06T02:41:59.652Z,-0.80
2023-03-06T02:44:30.887Z,-0.80
2023-03-06T02:46:59.027Z,-0.80
2023-03-06T02:49:29.590Z,-0.80
2023-03-06T02:51:58.581Z,-0.80
2023-03-06T02:54:26.965Z,-0.90
2023-03-06T02:56:55.802Z,-0.90
2023-03-06T02:59:25.207Z,-0.80
2023-03-06T03:01:56.650Z,-0.80
2023-03-06T03:04:25.837Z,-0.80
2023-03-06T03:06:54.500Z,-0.80
2023-03-06T03:09:23.399Z,-0.70
2023-03-06T03:11:54.220Z,-0.70
2023-03-06T03:14:25.079Z,-0.70
2023-03-06T03:16:54.602Z,-0.70
2023-03-06T03:19:21.731Z,-0.70
2023-03-06T03:21:50.974Z,-0.70
2023-03-06T03:24:21.590Z,-0.70
2023-03-06T03:26:49.688Z,-0.70
2023-03-06T03:29:19.706Z,-0.70
2023-03-06T03:31:48.705Z,-0.80
2023-03-06T03:34:19.165Z,-0.80
2023-03-06T03:36:49.542Z,-0.90
2023-03-06T03:39:19.505Z,-1.00
2023-03-06T03:41:50.323Z,-1.10
2023-03-06T03:44:25.131Z,-1.10
2023-03-06T03:46:53.066Z,-1.20
2023-03-06T03:49:22.839Z,-1.30
2023-03-06T03:51:53.113Z,-1.40
2023-03-06T03:54:21.141Z,-1.40
2023-03-06T03:56:49.950Z,-1.30
2023-03-06T03:59:29.360Z,-1.40
2023-03-06T04:02:22.037Z,-1.50
2023-03-06T04:04:58.412Z,-1.40
2023-03-06T04:07:27.257Z,-1.50
2023-03-06T04:09:54.792Z,-1.40
2023-03-06T04:12:25.232Z,-1.40
2023-03-06T04:14:58.669Z,-1.50
2023-03-06T04:17:30.027Z,-1.50
2023-03-06T04:19:58.251Z,-1.60
2023-03-06T04:22:26.880Z,-1.50
2023-03-06T04:24:54.619Z,-1.50
2023-03-06T04:27:24.966Z,-1.60
2023-03-06T04:29:54.387Z,-1.60
2023-03-06T04:32:25.896Z,-1.60
2023-03-06T04:34:53.301Z,-1.60
2023-03-06T04:37:24.735Z,-1.60
2023-03-06T04:39:52.948Z,-1.60
2023-03-06T04:42:21.761Z,-1.70
2023-03-06T04:44:51.334Z,-1.60
2023-03-06T04:47:24.300Z,-1.70
2023-03-06T04:49:53.325Z,-1.70
2023-03-06T04:52:20.128Z,-1.70
2023-03-06T04:54:49.051Z,-1.70
2023-03-06T04:57:18.528Z,-1.70
2023-03-06T04:59:53.851Z,-1.70
2023-03-06T05:02:21.466Z,-1.70
2023-03-06T05:04:49.437Z,-1.80
2023-03-06T05:07:16.292Z,-1.80
2023-03-06T05:09:46.289Z,-1.70
2023-03-06T05:12:15.794Z,-1.80
2023-03-06T05:14:48.023Z,-1.70
2023-03-06T05:17:18.703Z,-1.70
2023-03-06T05:19:47.639Z,-1.70
2023-03-06T05:22:14.930Z,-1.70
2023-03-06T05:24:42.419Z,-1.70
2023-03-06T05:27:09.286Z,-1.70
2023-03-06T05:29:36.739Z,-1.70
2023-03-06T05:32:03.822Z,-1.70
2023-03-06T05:34:33.503Z,-1.70
2023-03-06T05:37:02.088Z,-1.70
2023-03-06T05:39:30.220Z,-1.80
2023-03-06T05:41:57.247Z,-1.70
2023-03-06T05:44:34.695Z,-1.70
2023-03-06T05:47:02.652Z,-1.80
2023-03-06T05:49:38.714Z,-1.80
2023-03-06T05:52:09.669Z,-1.70
2023-03-06T05:54:38.680Z,-1.80
2023-03-06T05:57:06.093Z,-1.80
2023-03-06T05:59:33.768Z,-1.70
2023-03-06T06:02:01.628Z,-1.80
2023-03-06T06:04:33.188Z,-1.90
2023-03-06T06:07:01.672Z,-1.90
2023-03-06T06:09:29.448Z,-1.80
2023-03-06T06:12:05.157Z,-1.80
2023-03-06T06:14:36.642Z,-1.90
2023-03-06T06:17:04.177Z,-1.90
2023-03-06T06:19:36.270Z,-1.80
2023-03-06T06:22:05.318Z,-1.90
2023-03-06T06:24:32.978Z,-1.90
2023-03-06T06:27:03.875Z,-1.70
2023-03-06T06:29:35.096Z,-1.90
2023-03-06T06:32:05.983Z,-1.80
2023-03-06T06:34:36.167Z,-1.80
2023-03-06T06:37:07.536Z,-1.80
2023-03-06T06:39:34.599Z,-1.80
2023-03-06T06:42:28.176Z,-1.80
2023-03-06T06:44:52.848Z,-1.80
2023-03-06T06:47:23.664Z,-1.70
2023-03-06T06:49:55.538Z,-1.80
2023-03-06T06:52:29.507Z,-1.70
2023-03-06T06:54:58.597Z,-1.70
2023-03-06T06:57:32.004Z,-1.60
2023-03-06T07:00:06.809Z,-1.60
2023-03-06T07:02:38.240Z,-1.50
2023-03-06T07:05:09.278Z,-1.50
2023-03-06T07:07:38.046Z,-1.40
2023-03-06T07:10:08.567Z,-1.30
2023-03-06T07:12:39.098Z,-1.20
2023-03-06T07:15:17.477Z,-1.20
2023-03-06T07:17:44.650Z,-1.10
2023-03-06T07:20:13.972Z,-1.00
2023-03-06T07:22:51.224Z,-1.00
2023-03-06T07:25:27.568Z,-0.90
2023-03-06T07:27:58.047Z,-0.90
2023-03-06T07:30:27.742Z,-0.80
2023-03-06T07:33:00.153Z,-0.70
2023-03-06T07:35:29.457Z,-0.60
2023-03-06T07:37:59.191Z,-0.60
2023-03-06T07:40:29.962Z,-0.50
2023-03-06T07:43:13.010Z,-0.30
2023-03-06T07:46:02.141Z,-0.10
2023-03-06T07:48:29.915Z,0.10
2023-03-06T07:51:01.668Z,0.20
2023-03-06T07:53:29.118Z,0.30
2023-03-06T07:55:56.733Z,0.40
2023-03-06T07:58:25.099Z,0.40
2023-03-06T08:00:54.501Z,0.30
2023-03-06T08:03:21.618Z,0.30
2023-03-06T08:05:53.495Z,0.50
2023-03-06T08:08:20.634Z,0.20
2023-03-06T08:10:49.800Z,0.30
2023-03-06T08:13:19.240Z,0.30
2023-03-06T08:15:49.788Z,0.40
2023-03-06T08:18:17.573Z,0.60
2023-03-06T08:20:44.792Z,0.70
2023-03-06T08:23:13.699Z,0.80
2023-03-06T08:25:40.749Z,0.80
2023-03-06T08:28:10.910Z,0.90
2023-03-06T08:30:38.154Z,1.10
2023-03-06T08:33:04.988Z,1.20
2023-03-06T08:35:31.895Z,1.20
2023-03-06T08:37:58.738Z,1.00
2023-03-06T08:40:27.449Z,1.10
2023-03-06T08:42:54.716Z,1.00
2023-03-06T08:45:21.937Z,1.10
2023-03-06T08:47:48.853Z,1.10
2023-03-06T08:50:16.132Z,1.20
2023-03-06T08:52:42.886Z,1.30
2023-03-06T08:55:09.976Z,1.20
2023-03-06T08:57:37.181Z,1.20
2023-03-06T09:00:09.048Z,1.30
2023-03-06T09:02:38.745Z,1.50
2023-03-06T09:05:07.685Z,1.60
2023-03-06T09:07:36.976Z,1.60
2023-03-06T09:10:04.436Z,1.70
2023-03-06T09:12:40.433Z,1.80
2023-03-06T09:15:17.658Z,1.80
2023-03-06T09:17:44.927Z,1.80
2023-03-06T09:20:13.679Z,1.60
2023-03-06T09:22:42.470Z,1.50
2023-03-06T09:25:11.331Z,1.70
2023-03-06T09:27:38.610Z,2.10
2023-03-06T09:30:07.187Z,2.30
2023-03-06T09:32:34.032Z,2.30
2023-03-06T09:35:03.407Z,2.20
2023-03-06T09:37:30.384Z,2.40
2023-03-06T09:39:58.005Z,2.50
2023-03-06T09:42:25.413Z,2.60
2023-03-06T09:45:01.634Z,2.90
2023-03-06T09:47:41.143Z,3.20
2023-03-06T09:50:28.043Z,3.40
2023-03-06T09:53:16.275Z,3.40
2023-03-06T09:55:50.790Z,3.20
2023-03-06T09:58:23.717Z,3.10
2023-03-06T10:01:13.353Z,2.80
2023-03-06T10:04:01.008Z,2.50
2023-03-06T10:06:34.087Z,2.20
2023-03-06T10:09:13.796Z,2.20
2023-03-06T10:12:04.157Z,2.30
2023-03-06T10:14:39.856Z,2.60
2023-03-06T10:17:11.043Z,2.70
2023-03-06T10:19:41.753Z,3.00
2023-03-06T10:22:21.151Z,2.50
2023-03-06T10:24:54.868Z,2.70
2023-03-06T10:27:31.930Z,2.50
2023-03-06T10:30:14.685Z,2.40
2023-03-06T10:32:48.581Z,2.40
2023-03-06T10:35:22.470Z,2.40
2023-03-06T10:37:58.111Z,2.60
2023-03-06T10:40:35.158Z,3.00
2023-03-06T10:43:12.327Z,3.20
2023-03-06T10:45:53.618Z,3.30
2023-03-06T10:48:29.534Z,3.10
2023-03-06T10:51:22.905Z,3.00
2023-03-06T10:53:52.772Z,3.40
2023-03-06T10:56:34.809Z,3.50
2023-03-06T10:59:10.869Z,3.40
2023-03-06T11:01:38.848Z,3.50
2023-03-06T11:04:18.030Z,3.50
2023-03-06T11:06:46.894Z,3.50
2023-03-06T11:09:26.501Z,3.70
2023-03-06T11:12:16.460Z,3.70
2023-03-06T11:14:44.922Z,3.90
2023-03-06T11:17:32.388Z,4.20
2023-03-06T11:20:23.752Z,4.30
2023-03-06T11:23:05.414Z,4.30
2023-03-06T11:25:41.788Z,4.20
2023-03-06T11:28:27.954Z,4.60
2023-03-06T11:31:04.257Z,5.10
2023-03-06T11:33:50.126Z,5.70
2023-03-06T11:36:30.780Z,5.90
2023-03-06T11:39:03.184Z,6.00
2023-03-06T11:42:09.700Z,6.40
2023-03-06T11:45:21.545Z,6.40
2023-03-06T11:48:23.547Z,6.00
2023-03-06T11:50:57.383Z,6.10
2023-03-06T11:53:38.738Z,5.50
2023-03-06T11:56:56.172Z,5.40
2023-03-06T11:59:55.766Z,5.60
2023-03-06T12:02:46.285Z,5.40
2023-03-06T12:05:31.247Z,5.40
2023-03-06T12:08:10.831Z,5.70
2023-03-06T12:11:12.080Z,5.40
2023-03-06T12:14:16.708Z,5.00
2023-03-06T12:16:53.919Z,4.70
2023-03-06T12:19:56.371Z,4.80
2023-03-06T12:22:37.803Z,4.20
2023-03-06T12:36:33.772Z,3.20
2023-03-06T12:39:19.113Z,3.50
2023-03-06T12:45:50.069Z,3.50
2023-03-06T12:48:47.082Z,3.50
2023-03-06T12:51:33.863Z,3.70
2023-03-06T12:54:02.797Z,4.10
2023-03-06T12:56:33.173Z,4.30
2023-03-06T12:59:02.605Z,4.40
2023-03-06T13:02:08.856Z,4.30
2023-03-06T13:05:19.346Z,4.40
2023-03-06T13:08:31.710Z,4.80
2023-03-06T13:11:33.877Z,4.80
2023-03-06T13:14:01.619Z,4.40
2023-03-06T13:16:41.162Z,4.00
2023-03-06T13:19:28.004Z,3.90
2023-03-06T13:21:57.796Z,3.90
2023-03-06T13:24:37.962Z,3.70
2023-03-06T13:27:11.047Z,3.60
2023-03-06T13:29:41.845Z,3.60
2023-03-06T13:32:20.075Z,3.60
2023-03-06T13:34:51.963Z,3.70
2023-03-06T13:37:43.132Z,3.60
2023-03-06T13:40:10.772Z,3.80
2023-03-06T13:43:20.244Z,4.00
2023-03-06T13:45:50.853Z,4.10
2023-03-06T13:48:43.173Z,4.30
2023-03-06T13:51:25.042Z,4.10
2023-03-06T13:53:58.428Z,4.20
2023-03-06T13:57:03.633Z,4.70
2023-03-06T13:59:54.398Z,5.20
2023-03-06T14:02:51.405Z,5.30
2023-03-06T14:05:19.752Z,5.60
2023-03-06T14:07:49.762Z,5.90
2023-03-06T14:10:28.039Z,6.20
2023-03-06T14:13:23.079Z,6.10
2023-03-06T14:15:52.789Z,5.90
2023-03-06T14:18:40.151Z,5.70
2023-03-06T14:21:13.340Z,5.40
2023-03-06T14:23:45.902Z,5.20
2023-03-06T14:26:18.249Z,5.20
2023-03-06T14:28:55.154Z,5.10
2023-03-06T14:31:37.623Z,5.10
2023-03-06T14:34:07.129Z,5.30
2023-03-06T14:36:45.611Z,5.40
2023-03-06T14:39:40.406Z,5.00
2023-03-06T14:42:25.552Z,4.80
2023-03-06T14:45:08.068Z,4.80
2023-03-06T14:47:36.803Z,4.90
2023-03-06T14:50:36.449Z,4.90
2023-03-06T14:53:09.741Z,5.00
2023-03-06T14:55:37.312Z,4.80
2023-03-06T14:58:26.413Z,4.70
2023-03-06T15:00:55.165Z,4.50
2023-03-06T15:03:33.923Z,4.30
2023-03-06T15:06:01.730Z,4.10
2023-03-06T15:08:33.195Z,3.90
2023-03-06T15:11:08.753Z,3.90
2023-03-06T15:13:36.219Z,3.70
2023-03-06T15:16:16.715Z,3.60
2023-03-06T15:19:02.104Z,3.50
2023-03-06T15:21:40.756Z,3.50
2023-03-06T15:24:33.904Z,3.50
2023-03-06T15:27:09.162Z,3.40
2023-03-06T15:29:39.923Z,3.40
2023-03-06T15:32:30.538Z,3.30
2023-03-06T15:35:35.182Z,3.20
2023-03-06T15:38:24.381Z,3.00
2023-03-06T15:41:02.288Z,2.80
2023-03-06T15:43:36.995Z,2.70
2023-03-06T15:46:06.766Z,2.70
2023-03-06T15:48:36.951Z,2.60
2023-03-06T15:51:04.800Z,2.50
2023-03-06T15:53:32.116Z,2.40
2023-03-06T15:56:03.930Z,2.30
2023-03-06T15:58:33.817Z,2.20
2023-03-06T16:01:01.104Z,2.10
2023-03-06T16:03:28.299Z,2.10
2023-03-06T16:05:55.496Z,2.10
2023-03-06T16:08:22.625Z,2.10
2023-03-06T16:10:52.227Z,2.00
2023-03-06T16:13:26.765Z,1.90
2023-03-06T16:15:54.657Z,1.80
2023-03-06T16:18:21.582Z,1.80
2023-03-06T16:20:49.351Z,1.50
2023-03-06T16:23:18.541Z,1.40
2023-03-06T16:25:53.928Z,1.20
2023-03-06T16:28:21.301Z,1.00
2023-03-06T16:30:48.782Z,0.80
2023-03-06T16:33:16.413Z,0.60
2023-03-06T16:35:46.752Z,0.50
2023-03-06T16:38:15.734Z,0.50
2023-03-06T16:40:44.986Z,0.40
2023-03-06T16:43:13.511Z,0.40
2023-03-06T16:45:42.365Z,0.30
2023-03-06T16:48:15.650Z,0.30
2023-03-06T16:50:43.775Z,0.30
2023-03-06T16:53:11.363Z,0.30
2023-03-06T16:55:41.457Z,0.30
2023-03-06T16:58:08.863Z,0.30
2023-03-06T17:00:35.979Z,0.30
2023-03-06T17:03:03.787Z,0.20
2023-03-06T17:05:36.971Z,0.20
2023-03-06T17:08:04.743Z,0.20
2023-03-06T17:10:31.926Z,0.20
2023-03-06T17:12:59.052Z,0.20
2023-03-06T17:15:26.253Z,0.10
2023-03-06T17:17:55.554Z,0.10
2023-03-06T17:20:24.945Z,0.00
2023-03-06T17:22:56.775Z,0.00
2023-03-06T17:25:26.488Z,0.00
2023-03-06T17:27:55.776Z,0.00
2023-03-06T17:30:22.904Z,0.00
2023-03-06T17:32:56.178Z,-0.10
2023-03-06T17:35:25.696Z,0.00
2023-03-06T17:37:52.877Z,0.20
2023-03-06T17:40:25.661Z,0.20
2023-03-06T17:42:55.432Z,0.10
2023-03-06T17:45:26.160Z,0.20
2023-03-06T17:47:54.646Z,0.10
2023-03-06T17:50:22.024Z,0.20
2023-03-06T17:52:51.375Z,0.30
2023-03-06T17:55:20.782Z,0.40
2023-03-06T17:57:47.694Z,0.20
2023-03-06T18:00:15.627Z,0.10
2023-03-06T18:02:45.800Z,0.10
2023-03-06T18:05:12.750Z,0.10
2023-03-06T18:07:40.114Z,0.10
2023-03-06T18:10:10.189Z,0.10
2023-03-06T18:12:37.402Z,0.10
2023-03-06T18:15:05.052Z,0.20
2023-03-06T18:17:32.015Z,0.10
2023-03-06T18:20:01.701Z,0.10
2023-03-06T18:22:30.966Z,0.20
2023-03-06T18:24:58.080Z,0.10
2023-03-06T18:27:25.263Z,0.10
2023-03-06T18:29:57.520Z,0.10
2023-03-06T18:32:24.780Z,0.10
2023-03-06T18:34:52.022Z,0.20
2023-03-06T18:37:19.042Z,0.20
2023-03-06T18:39:45.934Z,0.20
2023-03-06T18:42:15.213Z,0.30
2023-03-06T18:44:48.046Z,0.30
2023-03-06T18:47:17.436Z,0.30
2023-03-06T18:49:46.277Z,0.30
2023-03-06T18:52:13.231Z,0.30
2023-03-06T18:54:43.116Z,0.30
2023-03-06T18:57:11.375Z,0.30
2023-03-06T18:59:40.457Z,0.40
2023-03-06T19:02:07.682Z,0.40
2023-03-06T19:04:37.966Z,0.30
2023-03-06T19:07:06.514Z,0.40
2023-03-06T19:09:34.041Z,0.20
2023-03-06T19:12:04.548Z,0.20
2023-03-06T19:14:31.770Z,0.20
2023-03-06T19:17:02.157Z,0.10
2023-03-06T19:19:31.094Z,0.20
2023-03-06T19:22:02.272Z,0.10
2023-03-06T19:24:29.356Z,0.10
2023-03-06T19:26:56.407Z,0.10
2023-03-06T19:29:23.494Z,0.10
2023-03-06T19:31:52.660Z,0.10
2023-03-06T19:34:21.854Z,0.10
2023-03-06T19:36:56.217Z,0.10
2023-03-06T19:39:25.153Z,0.10
2023-03-06T19:41:52.546Z,0.10
2023-03-06T19:44:19.777Z,0.10
2023-03-06T19:46:49.184Z,0.10
2023-03-06T19:49:22.423Z,0.10
2023-03-06T19:51:49.259Z,0.10
2023-03-06T19:54:16.507Z,0.10
2023-03-06T19:56:43.528Z,0.00
2023-03-06T19:59:10.306Z,0.00
2023-03-06T20:01:38.676Z,-0.10
2023-03-06T20:04:06.120Z,-0.20
2023-03-06T20:06:36.058Z,-0.20
2023-03-06T20:09:06.898Z,-0.30
2023-03-06T20:11:34.199Z,-0.40
2023-03-06T20:14:03.652Z,-0.50
2023-03-06T20:16:31.767Z,-0.60
2023-03-06T20:19:02.126Z,-0.70
2023-03-06T20:21:31.605Z,-0.80
2023-03-06T20:23:59.098Z,-1.00
2023-03-06T20:26:28.280Z,-1.10
2023-03-06T20:29:00.634Z,-1.30
2023-03-06T20:31:30.178Z,-1.30
2023-03-06T20:33:58.921Z,-1.30
2023-03-06T20:36:36.346Z,-1.30
2023-03-06T20:39:07.034Z,-1.30
2023-03-06T20:41:34.187Z,-1.30
2023-03-06T20:44:03.464Z,-1.30
2023-03-06T20:46:34.158Z,-1.30
2023-03-06T20:49:04.146Z,-1.40
2023-03-06T20:51:39.199Z,-1.40
2023-03-06T20:54:12.825Z,-1.30
2023-03-06T20:56:41.524Z,-1.30
2023-03-06T20:59:11.843Z,-1.30
2023-03-06T21:01:41.838Z,-1.30
2023-03-06T21:04:10.863Z,-1.40
2023-03-06T21:06:40.538Z,-1.40
2023-03-06T21:09:08.718Z,-1.30
2023-03-06T21:11:35.804Z,-1.30
2023-03-06T21:14:03.403Z,-1.30
2023-03-06T21:16:31.908Z,-1.30
2023-03-06T21:19:01.935Z,-1.40
2023-03-06T21:21:34.847Z,-1.40
2023-03-06T21:24:02.656Z,-1.30
2023-03-06T21:26:33.926Z,-1.40
2023-03-06T21:29:02.200Z,-1.40
2023-03-06T21:31:30.837Z,-1.40
2023-03-06T21:34:04.184Z,-1.40
2023-03-06T21:36:32.611Z,-1.50
2023-03-06T21:38:59.718Z,-1.40
2023-03-06T21:41:30.516Z,-1.30
2023-03-06T21:44:00.446Z,-1.30
2023-03-06T21:46:31.519Z,-1.40
2023-03-06T21:49:02.180Z,-1.40
2023-03-06T21:51:29.083Z,-1.40
2023-03-06T21:53:59.054Z,-1.40
2023-03-06T21:56:28.469Z,-1.60
2023-03-06T21:58:59.080Z,-1.60
2023-03-06T22:01:29.637Z,-1.60
2023-03-06T22:04:00.499Z,-1.70
2023-03-06T22:06:33.748Z,-1.80
2023-03-06T22:09:01.398Z,-1.80
2023-03-06T22:11:31.589Z,-1.80
2023-03-06T22:13:58.888Z,-1.80
2023-03-06T22:16:26.965Z,-1.80
2023-03-06T22:18:53.817Z,-1.80
2023-03-06T22:21:22.804Z,-1.70
2023-03-06T22:23:57.761Z,-1.70
2023-03-06T22:26:28.797Z,-1.80
2023-03-06T22:28:55.714Z,-1.80
2023-03-06T22:31:28.494Z,-1.70
2023-03-06T22:33:57.750Z,-1.70
2023-03-06T22:36:28.389Z,-1.70
2023-03-06T22:39:00.469Z,-1.70
2023-03-06T22:41:30.000Z,-1.70
2023-03-06T22:43:59.597Z,-1.60
2023-03-06T22:46:27.400Z,-1.80
2023-03-06T22:48:58.607Z,-1.70
2023-03-06T22:51:29.696Z,-1.80
2023-03-06T22:53:59.569Z,-1.80
2023-03-06T22:56:26.469Z,-1.80
2023-03-06T22:58:53.631Z,-1.80
2023-03-06T23:01:26.085Z,-1.80
2023-03-06T23:03:58.077Z,-1.60
2023-03-06T23:06:28.248Z,-1.60
2023-03-06T23:08:58.782Z,-1.60
2023-03-06T23:11:28.316Z,-1.70
2023-03-06T23:14:15.170Z,-1.50
2023-03-06T23:17:03.299Z,-1.60
2023-03-06T23:19:51.159Z,-1.40
2023-03-06T23:22:39.477Z,-1.40
2023-03-06T23:25:25.320Z,-1.20
2023-03-06T23:27:52.515Z,-1.20
2023-03-06T23:30:19.736Z,-1.30
2023-03-06T23:32:46.881Z,-1.20
2023-03-06T23:35:14.816Z,-1.10
2023-03-06T23:37:41.986Z,-1.20
2023-03-06T23:40:10.053Z,-1.20
2023-03-06T23:42:39.127Z,-1.20
2023-03-06T23:45:07.628Z,-1.20
2023-03-06T23:47:35.152Z,-1.30
2023-03-06T23:50:02.387Z,-1.30
2023-03-06T23:52:29.142Z,-1.40
2023-03-06T23:54:57.014Z,-1.50
2023-03-06T23:57:24.161Z,-1.40
2023-03-06T23:59:51.330Z,-1.50
